Terminal Aerodrome Forecast
Issued by NWS

Home | Current Version | Previous Version | Graphics & Text | Print | Product List | Glossary On
Versions: 1 2 3 4 5 6 7 8 9 10 11 12 13 14 15 16
000
FTUS43 KIWX 252327
TAFSBN
TAF
KSBN 252327Z 2600/2624 16010KT P6SM VCTS SCT050CB BKN120
      TEMPO 2601/2604 4SM -SHRA BR BKN035
     FM260400 17007KT P6SM SCT020 BKN100
      TEMPO 2610/2614 5SM BR BKN020
     FM261400 21013KT P6SM SCT040=

USA.gov is the U.S. government's official web portal to all federal, state and local government web resources and services.